createdAt,value
2018-03-19T00:01:23.428Z,3.83
2018-03-19T00:03:52.849Z,3.53
2018-03-19T00:06:23.725Z,5.07
2018-03-19T00:08:55.134Z,4.55
2018-03-19T00:11:24.439Z,4.53
2018-03-19T00:13:53.700Z,3.62
2018-03-19T00:16:23.104Z,4.03
2018-03-19T00:18:52.668Z,3.60
2018-03-19T00:21:21.973Z,4.68
2018-03-19T00:23:51.270Z,3.30
2018-03-19T00:26:21.619Z,4.12
2018-03-19T00:29:01.646Z,5.30
2018-03-19T00:31:31.021Z,3.92
2018-03-19T00:34:01.572Z,3.70
2018-03-19T00:36:30.915Z,4.78
2018-03-19T00:39:00.233Z,5.03
2018-03-19T00:41:29.574Z,3.40
2018-03-19T00:44:00.579Z,4.65
2018-03-19T00:46:29.905Z,3.65
2018-03-19T00:48:59.210Z,3.87
2018-03-19T00:51:29.225Z,4.10
2018-03-19T00:53:58.604Z,3.90
2018-03-19T00:56:27.929Z,3.92
2018-03-19T00:58:57.241Z,3.35
2018-03-19T01:01:26.589Z,3.97
2018-03-19T01:03:55.922Z,3.85
2018-03-19T01:06:25.152Z,4.00
2018-03-19T01:08:54.466Z,3.90
2018-03-19T01:11:24.561Z,4.05
2018-03-19T01:13:53.887Z,4.47
2018-03-19T01:16:23.259Z,3.83
2018-03-19T01:18:52.505Z,5.53
2018-03-19T01:21:21.798Z,3.80
2018-03-19T01:23:51.139Z,4.10
2018-03-19T01:26:20.600Z,3.65
2018-03-19T01:28:49.949Z,6.72
2018-03-19T01:31:19.270Z,3.87
2018-03-19T01:33:48.535Z,4.05
2018-03-19T01:36:17.872Z,3.90
2018-03-19T01:38:47.145Z,3.30
2018-03-19T01:41:17.257Z,3.05
2018-03-19T01:43:46.573Z,3.75
2018-03-19T01:46:15.843Z,4.18
2018-03-19T01:48:45.192Z,4.18
2018-03-19T01:51:14.472Z,4.65
2018-03-19T01:53:43.831Z,4.70
2018-03-19T01:56:13.122Z,5.10
2018-03-19T01:58:42.518Z,5.20
2018-03-19T02:01:11.949Z,5.28
2018-03-19T02:03:41.269Z,4.15
2018-03-19T02:06:10.847Z,4.18
2018-03-19T02:08:40.251Z,3.95
2018-03-19T02:11:09.633Z,4.85
2018-03-19T02:13:39.757Z,5.35
2018-03-19T02:16:09.048Z,3.72
2018-03-19T02:18:38.351Z,4.60
2018-03-19T02:21:12.515Z,5.47
2018-03-19T02:23:42.924Z,5.55
2018-03-19T02:26:15.778Z,4.95
2018-03-19T02:28:45.244Z,4.90
2018-03-19T02:31:14.569Z,4.05
2018-03-19T02:33:44.004Z,5.18
2018-03-19T02:36:13.659Z,3.62
2018-03-19T02:38:42.961Z,4.03
2018-03-19T02:41:12.259Z,5.07
2018-03-19T02:43:41.605Z,4.82
2018-03-19T02:46:10.958Z,4.10
2018-03-19T02:48:40.231Z,5.45
2018-03-19T02:51:09.541Z,4.55
2018-03-19T02:53:38.820Z,4.62
2018-03-19T02:56:08.119Z,5.28
2018-03-19T02:58:38.238Z,4.80
2018-03-19T03:01:08.298Z,4.00
2018-03-19T03:03:37.752Z,5.15
2018-03-19T03:06:07.082Z,4.00
2018-03-19T03:08:36.404Z,3.80
2018-03-19T03:11:05.703Z,4.10
2018-03-19T03:13:35.213Z,4.68
2018-03-19T03:16:05.098Z,3.97
2018-03-19T03:18:34.410Z,5.25
2018-03-19T03:21:03.714Z,4.10
2018-03-19T03:23:33.071Z,4.45
2018-03-19T03:26:02.432Z,4.78
2018-03-19T03:28:31.746Z,4.20
2018-03-19T03:31:02.080Z,4.35
2018-03-19T03:33:31.504Z,4.35
2018-03-19T03:36:00.801Z,4.80
2018-03-19T03:38:30.284Z,5.03
2018-03-19T03:40:59.593Z,4.65
2018-03-19T03:43:29.013Z,5.20
2018-03-19T03:45:58.340Z,4.97
2018-03-19T03:48:27.640Z,3.72
2018-03-19T03:50:57.490Z,6.30
2018-03-19T03:53:26.817Z,4.47
2018-03-19T03:55:56.130Z,6.22
2018-03-19T03:58:25.460Z,5.45
2018-03-19T04:00:54.760Z,4.47
2018-03-19T04:03:24.217Z,4.32
2018-03-19T04:05:53.592Z,4.78
2018-03-19T04:08:22.862Z,6.28
2018-03-19T04:10:52.171Z,4.00
2018-03-19T04:13:21.465Z,5.00
2018-03-19T04:15:52.813Z,5.68
2018-03-19T04:18:22.066Z,4.90
2018-03-19T04:20:51.763Z,5.47
2018-03-19T04:23:21.054Z,5.70
2018-03-19T04:25:53.537Z,5.18
2018-03-19T04:28:22.871Z,5.55
2018-03-19T04:30:52.152Z,4.80
2018-03-19T04:33:21.467Z,4.05
2018-03-19T04:35:50.866Z,6.00
2018-03-19T04:38:20.187Z,4.00
2018-03-19T04:40:49.541Z,5.22
2018-03-19T04:43:18.834Z,5.68
2018-03-19T04:45:48.102Z,4.30
2018-03-19T04:48:17.392Z,4.47
2018-03-19T04:50:46.760Z,4.43
2018-03-19T04:53:16.090Z,5.87
2018-03-19T04:55:45.423Z,5.00
2018-03-19T04:58:14.799Z,4.95
2018-03-19T05:00:44.161Z,3.53
2018-03-19T05:03:13.428Z,6.75
2018-03-19T05:05:46.115Z,5.55
2018-03-19T05:08:15.439Z,4.43
2018-03-19T05:10:44.738Z,4.03
2018-03-19T05:13:14.398Z,4.43
2018-03-19T05:15:43.753Z,4.40
2018-03-19T05:18:20.950Z,3.92
2018-03-19T05:20:55.746Z,6.05
2018-03-19T05:23:25.150Z,4.95
2018-03-19T05:25:56.628Z,4.72
2018-03-19T05:28:28.452Z,3.80
2018-03-19T05:30:57.807Z,5.40
2018-03-19T05:33:27.086Z,4.53
2018-03-19T05:35:56.393Z,4.37
2018-03-19T05:38:25.665Z,5.25
2018-03-19T05:40:54.982Z,4.43
2018-03-19T05:43:24.288Z,4.60
2018-03-19T05:45:53.606Z,5.05
2018-03-19T05:48:22.888Z,5.03
2018-03-19T05:50:52.254Z,4.07
2018-03-19T05:53:21.556Z,5.30
2018-03-19T05:55:51.007Z,4.10
2018-03-19T05:58:20.323Z,4.30
2018-03-19T06:00:49.598Z,4.30
2018-03-19T06:03:18.917Z,5.50
2018-03-19T06:05:49.160Z,4.95
2018-03-19T06:08:18.654Z,3.55
2018-03-19T06:10:48.015Z,5.72
2018-03-19T06:13:17.270Z,5.40
2018-03-19T06:15:47.347Z,3.42
2018-03-19T06:18:16.653Z,5.05
2018-03-19T06:20:46.894Z,4.95
2018-03-19T06:23:23.680Z,4.32
2018-03-19T06:25:53.790Z,5.00
2018-03-19T06:28:23.310Z,3.90
2018-03-19T06:30:52.853Z,4.25
2018-03-19T06:35:58.443Z,4.72
2018-03-19T06:38:28.129Z,6.15
2018-03-19T06:40:58.462Z,4.82
2018-03-19T06:43:28.586Z,4.53
2018-03-19T06:45:57.926Z,4.70
2018-03-19T06:48:27.833Z,3.70
2018-03-19T06:50:57.301Z,6.60
2018-03-19T06:53:28.753Z,3.62
2018-03-19T06:55:58.101Z,7.80
2018-03-19T06:58:27.631Z,5.43
2018-03-19T07:00:58.876Z,5.05
2018-03-19T07:03:28.402Z,5.53
2018-03-19T07:05:57.694Z,4.53
2018-03-19T07:08:27.014Z,4.72
2018-03-19T07:10:58.084Z,5.90
2018-03-19T07:13:27.425Z,4.68
2018-03-19T07:15:57.684Z,3.85
2018-03-19T07:18:27.030Z,4.93
2018-03-19T07:20:56.368Z,5.05
2018-03-19T07:23:25.707Z,4.90
2018-03-19T07:25:54.986Z,4.07
2018-03-19T07:28:24.395Z,4.95
2018-03-19T07:30:53.711Z,5.18
2018-03-19T07:33:29.542Z,5.43
2018-03-19T07:35:58.890Z,5.30
2018-03-19T07:38:28.191Z,5.62
2018-03-19T07:40:57.574Z,5.90
2018-03-19T07:43:26.834Z,5.85
2018-03-19T07:45:56.121Z,4.85
2018-03-19T07:48:25.483Z,5.90
2018-03-19T07:50:54.819Z,6.12
2018-03-19T07:53:24.125Z,6.60
2018-03-19T07:55:53.532Z,6.25
2018-03-19T07:58:23.059Z,5.82
2018-03-19T08:00:52.342Z,5.12
2018-03-19T08:03:21.655Z,6.00
2018-03-19T08:05:50.929Z,5.35
2018-03-19T08:08:21.487Z,6.10
2018-03-19T08:10:50.866Z,6.43
2018-03-19T08:13:20.341Z,4.32
2018-03-19T08:15:49.864Z,5.50
2018-03-19T08:18:19.252Z,5.05
2018-03-19T08:20:48.653Z,6.87
2018-03-19T08:23:17.975Z,6.70
2018-03-19T08:25:48.068Z,6.60
2018-03-19T08:28:17.429Z,5.20
2018-03-19T08:30:46.764Z,6.65
2018-03-19T08:33:16.088Z,8.68
2018-03-19T08:35:45.467Z,7.65
2018-03-19T08:38:15.254Z,4.60
2018-03-19T08:40:44.586Z,4.68
2018-03-19T08:43:13.860Z,6.20
2018-03-19T08:45:43.199Z,5.32
2018-03-19T08:48:12.439Z,5.90
2018-03-19T08:50:42.543Z,5.37
2018-03-19T08:53:11.815Z,4.87
2018-03-19T08:55:41.142Z,6.10
2018-03-19T08:58:10.468Z,5.53
2018-03-19T09:00:39.735Z,5.95
2018-03-19T09:03:09.223Z,5.40
2018-03-19T09:05:38.526Z,6.10
2018-03-19T09:08:07.841Z,5.30
2018-03-19T09:10:37.129Z,4.90
2018-03-19T09:13:06.436Z,5.67
2018-03-19T09:15:35.876Z,6.67
2018-03-19T09:18:05.215Z,5.77
2018-03-19T09:20:34.687Z,5.20
2018-03-19T09:23:04.008Z,6.57
2018-03-19T09:25:33.427Z,6.10
2018-03-19T09:28:02.912Z,4.60
2018-03-19T09:30:32.312Z,6.00
2018-03-19T09:33:01.598Z,6.40
2018-03-19T09:35:31.517Z,6.03
2018-03-19T09:38:00.825Z,5.17
2018-03-19T09:40:30.186Z,7.07
2018-03-19T09:42:59.934Z,6.80
2018-03-19T09:45:29.573Z,5.40
2018-03-19T09:47:58.839Z,5.40
2018-03-19T09:50:28.838Z,7.30
2018-03-19T09:52:59.749Z,5.37
2018-03-19T09:55:29.484Z,7.03
2018-03-19T09:57:58.763Z,5.90
2018-03-19T10:00:28.148Z,5.60
2018-03-19T10:02:57.477Z,5.80
2018-03-19T10:05:27.085Z,6.73
2018-03-19T10:07:57.282Z,5.77
2018-03-19T10:10:26.567Z,6.57
2018-03-19T10:12:56.054Z,6.10
2018-03-19T10:15:27.640Z,5.90
2018-03-19T10:17:58.874Z,6.60
2018-03-19T10:20:29.982Z,6.70
2018-03-19T10:22:59.490Z,7.17
2018-03-19T10:25:29.995Z,5.83
2018-03-19T10:27:59.432Z,6.63
2018-03-19T10:30:29.400Z,6.60
2018-03-19T10:32:58.723Z,6.07
2018-03-19T10:35:28.008Z,6.10
2018-03-19T10:37:59.373Z,7.10
2018-03-19T10:40:46.110Z,6.37
2018-03-19T10:43:31.582Z,6.10
2018-03-19T10:46:01.104Z,6.23
2018-03-19T10:48:30.866Z,5.10
2018-03-19T10:51:00.192Z,6.10
2018-03-19T10:53:29.534Z,6.70
2018-03-19T10:55:58.932Z,6.40
2018-03-19T10:58:28.285Z,6.23
2018-03-19T11:01:02.964Z,6.87
2018-03-19T11:03:58.589Z,6.43
2018-03-19T11:06:33.296Z,5.70
2018-03-19T11:09:07.981Z,6.00
2018-03-19T11:11:40.943Z,6.23
2018-03-19T11:14:10.464Z,5.50
2018-03-19T11:16:39.775Z,6.97
2018-03-19T11:19:09.882Z,6.00
2018-03-19T11:21:44.207Z,7.33
2018-03-19T11:24:24.571Z,6.07
2018-03-19T11:26:54.107Z,6.60
2018-03-19T11:29:24.083Z,6.87
2018-03-19T11:31:53.668Z,5.80
2018-03-19T11:34:26.087Z,6.00
2018-03-19T11:36:56.640Z,6.20
2018-03-19T11:39:27.533Z,7.50
2018-03-19T11:41:58.631Z,6.23
2018-03-19T11:44:27.915Z,6.70
2018-03-19T11:46:57.991Z,8.00
2018-03-19T11:49:39.596Z,7.67
2018-03-19T11:52:09.173Z,5.40
2018-03-19T11:54:38.472Z,4.60
2018-03-19T11:57:07.800Z,6.77
2018-03-19T11:59:37.127Z,6.57
2018-03-19T12:02:06.488Z,7.17
2018-03-19T12:04:35.874Z,6.80
2018-03-19T12:07:05.187Z,5.93
2018-03-19T12:09:34.729Z,6.30
2018-03-19T12:12:04.196Z,5.50
2018-03-19T12:14:33.633Z,6.57
2018-03-19T12:17:03.217Z,5.77
2018-03-19T12:19:32.846Z,6.70
2018-03-19T12:22:02.456Z,6.40
2018-03-19T12:24:32.131Z,6.40
2018-03-19T12:27:01.546Z,6.77
2018-03-19T12:29:32.064Z,6.30
2018-03-19T12:32:01.991Z,6.90
2018-03-19T12:34:31.373Z,6.20
2018-03-19T12:37:00.790Z,7.10
2018-03-19T12:39:30.319Z,7.27
2018-03-19T12:41:59.692Z,5.87
2018-03-19T12:44:28.990Z,6.30
2018-03-19T12:46:59.416Z,6.70
2018-03-19T12:49:29.767Z,7.03
2018-03-19T12:51:59.345Z,6.67
2018-03-19T12:54:32.414Z,7.23
2018-03-19T12:57:19.898Z,7.20
2018-03-19T12:59:49.245Z,7.13
2018-03-19T13:02:20.590Z,6.13
2018-03-19T13:04:50.041Z,7.17
2018-03-19T13:07:19.319Z,6.53
2018-03-19T13:09:48.616Z,6.47
2018-03-19T13:12:18.254Z,5.50
2018-03-19T13:14:47.557Z,5.53
2018-03-19T13:17:17.158Z,6.77
2018-03-19T13:19:46.430Z,7.10
2018-03-19T13:22:15.726Z,6.50
2018-03-19T13:24:45.136Z,6.20
2018-03-19T13:27:14.678Z,6.73
2018-03-19T13:29:44.019Z,6.90
2018-03-19T13:32:13.381Z,7.77
2018-03-19T13:34:42.717Z,6.23
2018-03-19T13:37:12.114Z,6.57
2018-03-19T13:39:42.948Z,7.20
2018-03-19T13:42:12.324Z,6.13
2018-03-19T13:44:41.797Z,6.40
2018-03-19T13:47:11.166Z,7.20
2018-03-19T13:49:40.641Z,7.07
2018-03-19T13:52:10.247Z,7.30
2018-03-19T13:54:39.681Z,6.30
2018-03-19T13:57:08.949Z,7.47
2018-03-19T13:59:38.368Z,6.90
2018-03-19T14:02:07.683Z,5.97
2018-03-19T14:04:37.058Z,6.00
2018-03-19T14:07:07.107Z,6.83
2018-03-19T14:12:09.740Z,6.43
2018-03-19T14:14:39.174Z,5.97
2018-03-19T14:19:58.333Z,6.87
2018-03-19T14:22:27.776Z,6.13
2018-03-19T14:24:57.173Z,5.90
2018-03-19T14:27:27.326Z,5.90
2018-03-19T14:29:56.560Z,5.50
2018-03-19T14:32:26.018Z,5.40
2018-03-19T14:34:55.299Z,7.00
2018-03-19T14:37:29.134Z,5.40
2018-03-19T14:39:58.526Z,6.00
2018-03-19T14:42:30.840Z,7.60
2018-03-19T14:45:00.156Z,6.10
2018-03-19T14:47:29.521Z,5.77
2018-03-19T14:49:59.635Z,5.63
2018-03-19T14:52:28.932Z,5.47
2018-03-19T14:54:58.375Z,4.97
2018-03-19T14:57:40.302Z,4.63
2018-03-19T15:00:09.640Z,5.30
2018-03-19T15:02:38.859Z,5.30
2018-03-19T15:05:08.167Z,5.47
2018-03-19T15:07:38.416Z,4.30
2018-03-19T15:10:08.092Z,6.00
2018-03-19T15:12:37.387Z,4.13
2018-03-19T15:15:06.821Z,4.37
2018-03-19T15:17:37.134Z,4.93
2018-03-19T15:20:06.389Z,4.90
2018-03-19T15:22:36.467Z,4.37
2018-03-19T15:25:06.823Z,4.73
2018-03-19T15:27:36.148Z,3.63
2018-03-19T15:30:05.514Z,5.90
2018-03-19T15:32:34.918Z,4.80
2018-03-19T15:35:04.205Z,4.70
2018-03-19T15:37:34.274Z,4.17
2018-03-19T15:40:03.630Z,4.53
2018-03-19T15:42:32.890Z,4.33
2018-03-19T15:45:02.211Z,4.27
2018-03-19T15:47:31.537Z,4.00
2018-03-19T15:50:00.866Z,4.30
2018-03-19T15:52:30.191Z,4.37
2018-03-19T15:54:59.492Z,4.87
2018-03-19T15:57:28.801Z,5.23
2018-03-19T15:59:58.141Z,3.92
2018-03-19T16:02:28.201Z,3.80
2018-03-19T16:04:57.485Z,5.60
2018-03-19T16:07:26.775Z,4.47
2018-03-19T16:09:56.012Z,4.23
2018-03-19T16:12:26.079Z,4.30
2018-03-19T16:14:55.633Z,3.93
2018-03-19T16:17:25.902Z,4.25
2018-03-19T16:19:55.905Z,4.03
2018-03-19T16:22:25.197Z,5.03
2018-03-19T16:24:54.450Z,5.23
2018-03-19T16:27:23.945Z,5.25
2018-03-19T16:29:53.184Z,4.47
2018-03-19T16:32:22.442Z,5.68
2018-03-19T16:34:51.760Z,4.97
2018-03-19T16:37:21.511Z,4.10
2018-03-19T16:39:50.741Z,5.10
2018-03-19T16:42:19.995Z,4.75
2018-03-19T16:44:49.303Z,4.55
2018-03-19T16:47:18.602Z,4.78
2018-03-19T16:49:47.934Z,4.75
2018-03-19T16:52:17.224Z,5.22
2018-03-19T16:54:46.526Z,4.78
2018-03-19T16:57:15.830Z,5.18
2018-03-19T16:59:45.382Z,5.07
2018-03-19T17:02:14.743Z,4.50
2018-03-19T17:04:44.807Z,4.65
2018-03-19T17:07:14.091Z,4.55
2018-03-19T17:09:44.140Z,4.85
2018-03-19T17:12:14.380Z,4.80
2018-03-19T17:14:43.648Z,4.55
2018-03-19T17:17:13.391Z,4.60
2018-03-19T17:19:48.771Z,3.90
2018-03-19T17:22:24.157Z,5.57
2018-03-19T17:24:59.358Z,5.15
2018-03-19T17:27:34.529Z,6.78
2018-03-19T17:30:10.899Z,5.07
2018-03-19T17:32:46.907Z,6.10
2018-03-19T17:35:22.023Z,5.05
2018-03-19T17:37:58.099Z,5.75
2018-03-19T17:40:34.056Z,6.03
2018-03-19T17:43:09.388Z,5.43
2018-03-19T17:45:58.055Z,5.53
2018-03-19T17:48:33.290Z,6.25
2018-03-19T17:51:09.612Z,5.53
2018-03-19T17:53:44.697Z,6.45
2018-03-19T17:56:19.963Z,5.50
2018-03-19T18:05:15.202Z,6.20
2018-03-19T18:11:07.428Z,6.07
2018-03-19T18:13:42.622Z,5.72
2018-03-19T18:16:18.831Z,7.35
2018-03-19T18:18:53.927Z,9.43
2018-03-19T18:21:29.316Z,6.47
2018-03-19T18:24:04.576Z,7.50
2018-03-19T18:26:39.827Z,7.22
2018-03-19T18:29:15.052Z,8.43
2018-03-19T18:31:50.313Z,8.02
2018-03-19T18:34:25.508Z,6.40
2018-03-19T18:37:01.043Z,6.47
2018-03-19T18:39:36.200Z,7.05
2018-03-19T18:42:11.379Z,8.40
2018-03-19T18:44:46.441Z,7.20
2018-03-19T18:47:21.561Z,7.10
2018-03-19T18:49:57.035Z,7.80
2018-03-19T18:52:32.666Z,8.32
2018-03-19T18:55:08.111Z,8.27
2018-03-19T18:57:43.479Z,8.65
2018-03-19T19:00:18.671Z,7.60
2018-03-19T19:02:54.097Z,7.18
2018-03-19T19:05:29.209Z,7.07
2018-03-19T19:08:04.491Z,7.15
2018-03-19T19:10:39.649Z,9.30
2018-03-19T19:13:15.062Z,7.75
2018-03-19T19:15:50.538Z,7.15
2018-03-19T19:18:25.796Z,7.22
2018-03-19T19:21:00.992Z,5.97
2018-03-19T19:23:36.208Z,7.82
2018-03-19T19:26:11.904Z,7.47
2018-03-19T19:28:47.487Z,7.20
2018-03-19T19:31:22.889Z,8.23
2018-03-19T19:33:58.103Z,7.53
2018-03-19T19:36:33.473Z,7.35
2018-03-19T19:39:08.697Z,7.30
2018-03-19T19:41:44.108Z,12.85
2018-03-19T19:44:19.362Z,5.68
2018-03-19T19:46:54.959Z,8.27
2018-03-19T19:49:30.429Z,8.05
2018-03-19T19:52:05.587Z,8.23
2018-03-19T19:54:40.677Z,7.78
2018-03-19T19:57:16.015Z,7.30
2018-03-19T19:59:51.218Z,7.35
2018-03-19T20:02:26.330Z,7.62
2018-03-19T20:05:01.472Z,9.70
2018-03-19T20:07:36.729Z,7.53
2018-03-19T20:10:11.997Z,8.23
2018-03-19T20:12:47.058Z,9.20
2018-03-19T20:15:22.545Z,7.62
2018-03-19T20:17:57.779Z,8.13
2018-03-19T20:20:33.038Z,7.78
2018-03-19T20:23:08.208Z,7.60
2018-03-19T20:25:43.722Z,8.85
2018-03-19T20:28:19.642Z,8.00
2018-03-19T20:30:59.908Z,7.70
2018-03-19T20:33:35.770Z,8.38
2018-03-19T20:36:11.081Z,7.55
2018-03-19T20:38:46.542Z,6.97
2018-03-19T20:41:22.317Z,8.07
2018-03-19T20:43:59.573Z,7.70
2018-03-19T20:46:34.730Z,7.65
2018-03-19T20:49:15.147Z,7.43
2018-03-19T20:51:52.312Z,9.90
2018-03-19T20:54:27.496Z,11.70
2018-03-19T20:57:02.525Z,8.40
2018-03-19T20:59:37.706Z,7.45
2018-03-19T21:02:13.125Z,7.15
2018-03-19T21:04:48.334Z,8.18
2018-03-19T21:07:25.370Z,6.72
2018-03-19T21:10:00.774Z,7.40
2018-03-19T21:12:36.091Z,6.82
2018-03-19T21:15:11.250Z,6.15
2018-03-19T21:17:46.605Z,6.82
2018-03-19T21:20:21.788Z,7.43
2018-03-19T21:22:58.181Z,6.62
2018-03-19T21:25:33.466Z,8.98
2018-03-19T21:28:08.747Z,7.55
2018-03-19T21:30:43.981Z,8.55
2018-03-19T21:33:19.197Z,7.28
2018-03-19T21:35:54.593Z,5.97
2018-03-19T21:38:29.826Z,9.38
2018-03-19T21:41:04.898Z,6.57
2018-03-19T21:43:40.130Z,6.45
2018-03-19T21:46:15.642Z,8.20
2018-03-19T21:48:50.844Z,6.75
2018-03-19T21:51:26.458Z,5.75
2018-03-19T21:54:01.531Z,7.30
2018-03-19T21:56:36.751Z,7.55
2018-03-19T21:59:12.181Z,6.32
2018-03-19T22:01:47.214Z,8.20
2018-03-19T22:04:22.418Z,7.03
2018-03-19T22:06:57.646Z,5.97
2018-03-19T22:09:33.510Z,7.50
2018-03-19T22:12:08.554Z,6.35
2018-03-19T22:14:43.779Z,8.32
2018-03-19T22:17:18.954Z,6.05
2018-03-19T22:19:54.483Z,6.53
2018-03-19T22:22:29.694Z,6.45
2018-03-19T22:25:04.912Z,6.97
2018-03-19T22:27:39.954Z,7.47
2018-03-19T22:30:15.169Z,6.18
2018-03-19T22:32:50.234Z,8.63
2018-03-19T22:35:25.637Z,5.43
2018-03-19T22:38:01.039Z,6.40
2018-03-19T22:40:37.023Z,6.00
2018-03-19T22:43:12.417Z,6.37
2018-03-19T22:45:47.795Z,6.80
2018-03-19T22:48:22.887Z,6.32
2018-03-19T22:50:58.108Z,6.57
2018-03-19T22:53:33.176Z,6.47
2018-03-19T22:56:08.449Z,6.15
2018-03-19T22:58:43.487Z,6.22
2018-03-19T23:01:18.700Z,5.40
2018-03-19T23:03:54.347Z,5.32
2018-03-19T23:06:29.587Z,4.40
2018-03-19T23:09:04.665Z,4.97
2018-03-19T23:11:39.894Z,5.82
2018-03-19T23:14:15.096Z,7.18
2018-03-19T23:16:50.361Z,5.45
2018-03-19T23:19:25.570Z,7.05
2018-03-19T23:22:00.851Z,5.85
2018-03-19T23:24:36.059Z,5.65
2018-03-19T23:27:11.491Z,5.30
2018-03-19T23:29:46.550Z,4.32
2018-03-19T23:32:21.638Z,5.00
2018-03-19T23:34:56.794Z,6.05
2018-03-19T23:37:31.998Z,6.15
2018-03-19T23:40:07.175Z,4.12
2018-03-19T23:42:42.399Z,4.43
2018-03-19T23:45:17.737Z,5.22
2018-03-19T23:47:52.981Z,4.20
2018-03-19T23:50:28.127Z,4.45
2018-03-19T23:53:03.314Z,5.15
2018-03-19T23:55:38.422Z,4.80
2018-03-19T23:58:13.639Z,6.07
